sensor_id;sensor_type;location;lat;lon;timestamp;temperature;humidity
18160;DHT22;9205;52.032;4.314;2023-04-15T00:02:14;10.30;1.00
18160;DHT22;9205;52.032;4.314;2023-04-15T00:04:44;10.20;1.00
18160;DHT22;9205;52.032;4.314;2023-04-15T00:07:11;10.20;1.00
18160;DHT22;9205;52.032;4.314;2023-04-15T00:09:40;10.20;1.00
18160;DHT22;9205;52.032;4.314;2023-04-15T00:12:07;10.20;1.00
18160;DHT22;9205;52.032;4.314;2023-04-15T00:14:34;10.20;1.00
18160;DHT22;9205;52.032;4.314;2023-04-15T00:17:02;10.20;1.00
18160;DHT22;9205;52.032;4.314;2023-04-15T00:19:30;10.20;1.00
18160;DHT22;9205;52.032;4.314;2023-04-15T00:21:59;10.20;1.00
18160;DHT22;9205;52.032;4.314;2023-04-15T00:24:26;10.10;1.00
18160;DHT22;9205;52.032;4.314;2023-04-15T00:26:53;10.10;1.00
18160;DHT22;9205;52.032;4.314;2023-04-15T00:29:20;10.10;1.00
18160;DHT22;9205;52.032;4.314;2023-04-15T00:31:48;10.10;1.00
18160;DHT22;9205;52.032;4.314;2023-04-15T00:34:15;10.10;1.00
18160;DHT22;9205;52.032;4.314;2023-04-15T00:36:42;10.10;1.00
18160;DHT22;9205;52.032;4.314;2023-04-15T00:39:12;10.10;1.00
18160;DHT22;9205;52.032;4.314;2023-04-15T00:41:42;10.10;1.00
18160;DHT22;9205;52.032;4.314;2023-04-15T00:44:09;10.10;1.00
18160;DHT22;9205;52.032;4.314;2023-04-15T00:46:37;10.00;1.00
18160;DHT22;9205;52.032;4.314;2023-04-15T00:49:06;10.00;1.00
18160;DHT22;9205;52.032;4.314;2023-04-15T00:51:33;10.00;1.00
18160;DHT22;9205;52.032;4.314;2023-04-15T00:54:05;10.00;1.00
18160;DHT22;9205;52.032;4.314;2023-04-15T00:56:36;10.00;1.00
18160;DHT22;9205;52.032;4.314;2023-04-15T00:59:04;10.00;1.00
18160;DHT22;9205;52.032;4.314;2023-04-15T01:01:33;9.90;1.00
18160;DHT22;9205;52.032;4.314;2023-04-15T01:04:03;9.90;1.00
18160;DHT22;9205;52.032;4.314;2023-04-15T01:06:31;10.00;1.00
18160;DHT22;9205;52.032;4.314;2023-04-15T01:08:59;9.90;1.00
18160;DHT22;9205;52.032;4.314;2023-04-15T01:11:27;9.90;1.00
18160;DHT22;9205;52.032;4.314;2023-04-15T01:13:57;9.90;1.00
18160;DHT22;9205;52.032;4.314;2023-04-15T01:16:25;9.90;1.00
18160;DHT22;9205;52.032;4.314;2023-04-15T01:18:53;9.90;1.00
18160;DHT22;9205;52.032;4.314;2023-04-15T01:21:22;9.80;1.00
18160;DHT22;9205;52.032;4.314;2023-04-15T01:23:50;9.80;1.00
18160;DHT22;9205;52.032;4.314;2023-04-15T01:26:23;9.80;1.00
18160;DHT22;9205;52.032;4.314;2023-04-15T01:28:50;9.80;1.00
18160;DHT22;9205;52.032;4.314;2023-04-15T01:31:18;9.80;1.00
18160;DHT22;9205;52.032;4.314;2023-04-15T01:33:45;9.80;1.00
18160;DHT22;9205;52.032;4.314;2023-04-15T01:36:13;9.80;1.00
18160;DHT22;9205;52.032;4.314;2023-04-15T01:38:41;9.80;1.00
18160;DHT22;9205;52.032;4.314;2023-04-15T01:41:08;9.80;1.00
18160;DHT22;9205;52.032;4.314;2023-04-15T01:43:36;9.80;1.00
18160;DHT22;9205;52.032;4.314;2023-04-15T01:46:04;9.70;1.00
18160;DHT22;9205;52.032;4.314;2023-04-15T01:48:31;9.70;1.00
18160;DHT22;9205;52.032;4.314;2023-04-15T01:50:59;9.70;1.00
18160;DHT22;9205;52.032;4.314;2023-04-15T01:53:26;9.70;1.00
18160;DHT22;9205;52.032;4.314;2023-04-15T01:55:54;9.60;1.00
18160;DHT22;9205;52.032;4.314;2023-04-15T01:58:21;9.60;1.00
18160;DHT22;9205;52.032;4.314;2023-04-15T02:00:50;9.60;1.00
18160;DHT22;9205;52.032;4.314;2023-04-15T02:03:18;9.60;1.00
18160;DHT22;9205;52.032;4.314;2023-04-15T02:05:45;9.60;1.00
18160;DHT22;9205;52.032;4.314;2023-04-15T02:08:12;9.50;1.00
18160;DHT22;9205;52.032;4.314;2023-04-15T02:10:39;9.50;1.00
18160;DHT22;9205;52.032;4.314;2023-04-15T02:13:06;9.40;1.00
18160;DHT22;9205;52.032;4.314;2023-04-15T02:15:34;9.40;1.00
18160;DHT22;9205;52.032;4.314;2023-04-15T02:18:03;9.40;1.00
18160;DHT22;9205;52.032;4.314;2023-04-15T02:20:30;9.50;1.00
18160;DHT22;9205;52.032;4.314;2023-04-15T02:22:57;9.40;1.00
18160;DHT22;9205;52.032;4.314;2023-04-15T02:25:25;9.40;1.00
18160;DHT22;9205;52.032;4.314;2023-04-15T02:27:52;9.40;1.00
18160;DHT22;9205;52.032;4.314;2023-04-15T02:30:20;9.40;1.00
18160;DHT22;9205;52.032;4.314;2023-04-15T02:32:48;9.40;1.00
18160;DHT22;9205;52.032;4.314;2023-04-15T02:35:17;9.40;1.00
18160;DHT22;9205;52.032;4.314;2023-04-15T02:37:44;9.30;1.00
18160;DHT22;9205;52.032;4.314;2023-04-15T02:40:12;9.30;1.00
18160;DHT22;9205;52.032;4.314;2023-04-15T02:42:39;9.30;1.00
18160;DHT22;9205;52.032;4.314;2023-04-15T02:45:10;9.30;1.00
18160;DHT22;9205;52.032;4.314;2023-04-15T02:47:39;9.30;1.00
18160;DHT22;9205;52.032;4.314;2023-04-15T02:50:11;9.30;1.00
18160;DHT22;9205;52.032;4.314;2023-04-15T02:52:42;9.30;1.00
18160;DHT22;9205;52.032;4.314;2023-04-15T02:55:10;9.20;1.00
18160;DHT22;9205;52.032;4.314;2023-04-15T02:57:37;9.20;5.70
18160;DHT22;9205;52.032;4.314;2023-04-15T03:00:08;9.20;57.40
18160;DHT22;9205;52.032;4.314;2023-04-15T03:02:39;9.20;99.90
18160;DHT22;9205;52.032;4.314;2023-04-15T03:05:11;9.10;99.90
18160;DHT22;9205;52.032;4.314;2023-04-15T03:07:46;9.10;99.90
18160;DHT22;9205;52.032;4.314;2023-04-15T03:10:13;9.10;99.90
18160;DHT22;9205;52.032;4.314;2023-04-15T03:12:40;9.00;99.90
18160;DHT22;9205;52.032;4.314;2023-04-15T03:15:11;9.00;99.90
18160;DHT22;9205;52.032;4.314;2023-04-15T03:17:43;8.90;1.00
18160;DHT22;9205;52.032;4.314;2023-04-15T03:20:12;8.90;1.00
18160;DHT22;9205;52.032;4.314;2023-04-15T03:22:39;8.90;1.00
18160;DHT22;9205;52.032;4.314;2023-04-15T03:25:09;8.90;1.00
18160;DHT22;9205;52.032;4.314;2023-04-15T03:27:37;8.80;1.00
18160;DHT22;9205;52.032;4.314;2023-04-15T03:30:06;8.80;1.00
18160;DHT22;9205;52.032;4.314;2023-04-15T03:32:36;8.80;1.00
18160;DHT22;9205;52.032;4.314;2023-04-15T03:35:05;8.90;1.00
18160;DHT22;9205;52.032;4.314;2023-04-15T03:37:34;8.80;1.00
18160;DHT22;9205;52.032;4.314;2023-04-15T03:40:01;8.80;1.00
18160;DHT22;9205;52.032;4.314;2023-04-15T03:42:30;8.80;1.00
18160;DHT22;9205;52.032;4.314;2023-04-15T03:44:57;8.80;1.00
18160;DHT22;9205;52.032;4.314;2023-04-15T03:47:25;8.70;1.00
18160;DHT22;9205;52.032;4.314;2023-04-15T03:49:52;8.60;1.00
18160;DHT22;9205;52.032;4.314;2023-04-15T03:52:19;8.60;1.00
18160;DHT22;9205;52.032;4.314;2023-04-15T03:54:46;8.60;94.40
18160;DHT22;9205;52.032;4.314;2023-04-15T03:57:13;8.50;99.90
18160;DHT22;9205;52.032;4.314;2023-04-15T03:59:42;8.50;99.90
18160;DHT22;9205;52.032;4.314;2023-04-15T04:02:09;8.50;99.90
18160;DHT22;9205;52.032;4.314;2023-04-15T04:04:36;8.50;99.90
18160;DHT22;9205;52.032;4.314;2023-04-15T04:07:04;8.60;1.00
18160;DHT22;9205;52.032;4.314;2023-04-15T04:09:31;8.50;1.00
18160;DHT22;9205;52.032;4.314;2023-04-15T04:11:58;8.50;1.00
18160;DHT22;9205;52.032;4.314;2023-04-15T04:14:25;8.50;1.00
18160;DHT22;9205;52.032;4.314;2023-04-15T04:16:55;8.50;1.00
18160;DHT22;9205;52.032;4.314;2023-04-15T04:19:22;8.40;1.00
18160;DHT22;9205;52.032;4.314;2023-04-15T04:21:50;8.40;1.00
18160;DHT22;9205;52.032;4.314;2023-04-15T04:24:18;8.50;1.00
18160;DHT22;9205;52.032;4.314;2023-04-15T04:26:45;8.40;1.00
18160;DHT22;9205;52.032;4.314;2023-04-15T04:29:12;8.40;1.00
18160;DHT22;9205;52.032;4.314;2023-04-15T04:31:39;8.30;1.00
18160;DHT22;9205;52.032;4.314;2023-04-15T04:34:08;8.40;1.00
18160;DHT22;9205;52.032;4.314;2023-04-15T04:36:35;8.40;1.00
18160;DHT22;9205;52.032;4.314;2023-04-15T04:39:02;8.30;1.00
18160;DHT22;9205;52.032;4.314;2023-04-15T04:41:30;8.40;86.60
18160;DHT22;9205;52.032;4.314;2023-04-15T04:43:57;8.30;99.90
18160;DHT22;9205;52.032;4.314;2023-04-15T04:46:24;8.30;99.90
18160;DHT22;9205;52.032;4.314;2023-04-15T04:48:52;8.30;99.90
18160;DHT22;9205;52.032;4.314;2023-04-15T04:51:20;8.30;99.90
18160;DHT22;9205;52.032;4.314;2023-04-15T04:53:48;8.20;99.90
18160;DHT22;9205;52.032;4.314;2023-04-15T04:56:15;8.20;1.00
18160;DHT22;9205;52.032;4.314;2023-04-15T04:58:42;8.20;1.00
18160;DHT22;9205;52.032;4.314;2023-04-15T05:01:09;8.20;1.00
18160;DHT22;9205;52.032;4.314;2023-04-15T05:03:37;8.20;1.00
18160;DHT22;9205;52.032;4.314;2023-04-15T05:06:04;8.10;1.00
18160;DHT22;9205;52.032;4.314;2023-04-15T05:08:34;8.20;1.00
18160;DHT22;9205;52.032;4.314;2023-04-15T05:11:02;8.20;1.00
18160;DHT22;9205;52.032;4.314;2023-04-15T05:13:29;8.20;24.50
18160;DHT22;9205;52.032;4.314;2023-04-15T05:15:57;8.20;58.30
18160;DHT22;9205;52.032;4.314;2023-04-15T05:18:24;8.20;99.90
18160;DHT22;9205;52.032;4.314;2023-04-15T05:20:51;8.20;99.90
18160;DHT22;9205;52.032;4.314;2023-04-15T05:23:19;8.20;99.90
18160;DHT22;9205;52.032;4.314;2023-04-15T05:25:47;8.20;99.90
18160;DHT22;9205;52.032;4.314;2023-04-15T05:28:14;8.20;99.90
18160;DHT22;9205;52.032;4.314;2023-04-15T05:30:42;8.30;99.90
18160;DHT22;9205;52.032;4.314;2023-04-15T05:33:09;8.30;1.00
18160;DHT22;9205;52.032;4.314;2023-04-15T05:35:37;8.30;1.00
18160;DHT22;9205;52.032;4.314;2023-04-15T05:38:04;8.30;1.00
18160;DHT22;9205;52.032;4.314;2023-04-15T05:40:31;8.40;1.00
18160;DHT22;9205;52.032;4.314;2023-04-15T05:43:00;8.30;1.00
18160;DHT22;9205;52.032;4.314;2023-04-15T05:45:27;8.40;1.00
18160;DHT22;9205;52.032;4.314;2023-04-15T05:47:54;8.40;1.00
18160;DHT22;9205;52.032;4.314;2023-04-15T05:50:21;8.30;1.00
18160;DHT22;9205;52.032;4.314;2023-04-15T05:52:49;8.40;1.00
18160;DHT22;9205;52.032;4.314;2023-04-15T05:55:16;8.40;1.00
18160;DHT22;9205;52.032;4.314;2023-04-15T05:57:43;8.50;1.00
18160;DHT22;9205;52.032;4.314;2023-04-15T06:00:13;8.50;1.00
18160;DHT22;9205;52.032;4.314;2023-04-15T06:02:41;8.50;3.20
18160;DHT22;9205;52.032;4.314;2023-04-15T06:05:08;8.50;1.00
18160;DHT22;9205;52.032;4.314;2023-04-15T06:07:36;8.60;1.00
18160;DHT22;9205;52.032;4.314;2023-04-15T06:10:04;8.70;1.00
18160;DHT22;9205;52.032;4.314;2023-04-15T06:12:33;8.70;1.00
18160;DHT22;9205;52.032;4.314;2023-04-15T06:15:00;8.70;1.00
18160;DHT22;9205;52.032;4.314;2023-04-15T06:17:29;8.70;1.00
18160;DHT22;9205;52.032;4.314;2023-04-15T06:19:57;8.80;1.00
18160;DHT22;9205;52.032;4.314;2023-04-15T06:22:24;8.80;1.00
18160;DHT22;9205;52.032;4.314;2023-04-15T06:24:51;8.80;1.00
18160;DHT22;9205;52.032;4.314;2023-04-15T06:27:18;8.90;1.00
18160;DHT22;9205;52.032;4.314;2023-04-15T06:29:46;8.90;1.00
18160;DHT22;9205;52.032;4.314;2023-04-15T06:32:13;8.90;1.00
18160;DHT22;9205;52.032;4.314;2023-04-15T06:34:44;9.00;1.00
18160;DHT22;9205;52.032;4.314;2023-04-15T06:37:12;9.00;1.00
18160;DHT22;9205;52.032;4.314;2023-04-15T06:39:40;9.10;31.70
18160;DHT22;9205;52.032;4.314;2023-04-15T06:42:09;9.20;99.90
18160;DHT22;9205;52.032;4.314;2023-04-15T06:44:37;9.20;99.90
18160;DHT22;9205;52.032;4.314;2023-04-15T06:47:04;9.30;99.90
18160;DHT22;9205;52.032;4.314;2023-04-15T06:49:31;9.40;99.90
18160;DHT22;9205;52.032;4.314;2023-04-15T06:52:01;9.40;99.90
18160;DHT22;9205;52.032;4.314;2023-04-15T06:54:29;9.60;99.90
18160;DHT22;9205;52.032;4.314;2023-04-15T06:56:56;9.60;99.90
18160;DHT22;9205;52.032;4.314;2023-04-15T06:59:24;9.80;1.00
18160;DHT22;9205;52.032;4.314;2023-04-15T07:01:51;9.90;1.00
18160;DHT22;9205;52.032;4.314;2023-04-15T07:04:19;10.00;1.00
18160;DHT22;9205;52.032;4.314;2023-04-15T07:06:46;10.00;1.00
18160;DHT22;9205;52.032;4.314;2023-04-15T07:09:15;10.00;1.00
18160;DHT22;9205;52.032;4.314;2023-04-15T07:11:42;10.20;1.00
18160;DHT22;9205;52.032;4.314;2023-04-15T07:14:10;10.20;99.90
18160;DHT22;9205;52.032;4.314;2023-04-15T07:16:37;10.30;99.90
18160;DHT22;9205;52.032;4.314;2023-04-15T07:19:04;10.40;99.90
18160;DHT22;9205;52.032;4.314;2023-04-15T07:21:32;10.40;99.90
18160;DHT22;9205;52.032;4.314;2023-04-15T07:23:59;10.40;1.00
18160;DHT22;9205;52.032;4.314;2023-04-15T07:26:27;10.40;1.00
18160;DHT22;9205;52.032;4.314;2023-04-15T07:28:55;10.50;1.00
18160;DHT22;9205;52.032;4.314;2023-04-15T07:31:22;10.70;1.00
18160;DHT22;9205;52.032;4.314;2023-04-15T07:33:49;10.70;1.00
18160;DHT22;9205;52.032;4.314;2023-04-15T07:36:16;10.80;1.00
18160;DHT22;9205;52.032;4.314;2023-04-15T07:38:43;10.80;1.00
18160;DHT22;9205;52.032;4.314;2023-04-15T07:41:11;10.80;1.00
18160;DHT22;9205;52.032;4.314;2023-04-15T07:43:39;10.90;1.00
18160;DHT22;9205;52.032;4.314;2023-04-15T07:46:07;11.00;1.00
18160;DHT22;9205;52.032;4.314;2023-04-15T07:48:34;11.10;99.90
18160;DHT22;9205;52.032;4.314;2023-04-15T07:51:02;11.00;78.70
18160;DHT22;9205;52.032;4.314;2023-04-15T07:53:29;11.20;99.90
18160;DHT22;9205;52.032;4.314;2023-04-15T07:55:57;11.20;99.90
18160;DHT22;9205;52.032;4.314;2023-04-15T07:58:25;11.20;99.90
18160;DHT22;9205;52.032;4.314;2023-04-15T08:00:53;11.20;71.90
18160;DHT22;9205;52.032;4.314;2023-04-15T08:03:21;11.20;7.20
18160;DHT22;9205;52.032;4.314;2023-04-15T08:05:48;11.30;1.00
18160;DHT22;9205;52.032;4.314;2023-04-15T08:08:18;11.40;99.90
18160;DHT22;9205;52.032;4.314;2023-04-15T08:10:49;11.50;99.90
18160;DHT22;9205;52.032;4.314;2023-04-15T08:13:16;11.60;99.90
18160;DHT22;9205;52.032;4.314;2023-04-15T08:15:43;11.60;1.00
18160;DHT22;9205;52.032;4.314;2023-04-15T08:18:12;11.70;1.00
18160;DHT22;9205;52.032;4.314;2023-04-15T08:20:39;11.80;1.00
18160;DHT22;9205;52.032;4.314;2023-04-15T08:23:07;11.80;1.00
18160;DHT22;9205;52.032;4.314;2023-04-15T08:25:34;11.70;1.00
18160;DHT22;9205;52.032;4.314;2023-04-15T08:28:03;11.80;1.00
18160;DHT22;9205;52.032;4.314;2023-04-15T08:30:31;11.80;1.00
18160;DHT22;9205;52.032;4.314;2023-04-15T08:32:59;11.80;1.00
18160;DHT22;9205;52.032;4.314;2023-04-15T08:35:28;12.00;1.00
18160;DHT22;9205;52.032;4.314;2023-04-15T08:37:56;12.00;1.00
18160;DHT22;9205;52.032;4.314;2023-04-15T08:40:30;12.10;99.90
18160;DHT22;9205;52.032;4.314;2023-04-15T08:43:09;12.30;99.90
18160;DHT22;9205;52.032;4.314;2023-04-15T08:45:39;12.30;1.00
18160;DHT22;9205;52.032;4.314;2023-04-15T08:48:07;12.50;1.00
18160;DHT22;9205;52.032;4.314;2023-04-15T08:50:43;12.50;1.00
18160;DHT22;9205;52.032;4.314;2023-04-15T08:53:10;12.50;1.00
18160;DHT22;9205;52.032;4.314;2023-04-15T08:55:42;12.70;1.00
18160;DHT22;9205;52.032;4.314;2023-04-15T08:58:10;12.60;1.00
18160;DHT22;9205;52.032;4.314;2023-04-15T09:00:39;12.50;99.90
18160;DHT22;9205;52.032;4.314;2023-04-15T09:03:07;12.50;99.90
18160;DHT22;9205;52.032;4.314;2023-04-15T09:05:35;12.60;99.90
18160;DHT22;9205;52.032;4.314;2023-04-15T09:08:04;12.70;99.90
18160;DHT22;9205;52.032;4.314;2023-04-15T09:10:32;12.80;99.90
18160;DHT22;9205;52.032;4.314;2023-04-15T09:13:00;12.80;99.90
18160;DHT22;9205;52.032;4.314;2023-04-15T09:15:29;12.80;26.00
18160;DHT22;9205;52.032;4.314;2023-04-15T09:17:59;12.90;1.00
18160;DHT22;9205;52.032;4.314;2023-04-15T09:20:26;12.90;1.00
18160;DHT22;9205;52.032;4.314;2023-04-15T09:22:53;12.80;1.00
18160;DHT22;9205;52.032;4.314;2023-04-15T09:25:29;12.80;1.00
18160;DHT22;9205;52.032;4.314;2023-04-15T09:27:57;12.80;1.00
18160;DHT22;9205;52.032;4.314;2023-04-15T09:30:27;12.80;1.00
18160;DHT22;9205;52.032;4.314;2023-04-15T09:32:56;12.70;1.00
18160;DHT22;9205;52.032;4.314;2023-04-15T09:35:25;12.80;1.00
18160;DHT22;9205;52.032;4.314;2023-04-15T09:38:00;12.90;1.00
18160;DHT22;9205;52.032;4.314;2023-04-15T09:40:35;13.10;1.00
18160;DHT22;9205;52.032;4.314;2023-04-15T09:43:04;13.20;1.00
18160;DHT22;9205;52.032;4.314;2023-04-15T09:45:33;13.20;99.90
18160;DHT22;9205;52.032;4.314;2023-04-15T09:48:15;13.20;99.90
18160;DHT22;9205;52.032;4.314;2023-04-15T09:50:45;13.40;1.00
18160;DHT22;9205;52.032;4.314;2023-04-15T09:53:18;13.40;1.00
18160;DHT22;9205;52.032;4.314;2023-04-15T09:55:50;13.50;99.90
18160;DHT22;9205;52.032;4.314;2023-04-15T09:58:21;13.40;99.90
18160;DHT22;9205;52.032;4.314;2023-04-15T10:00:50;13.40;99.90
18160;DHT22;9205;52.032;4.314;2023-04-15T10:03:20;13.50;55.20
18160;DHT22;9205;52.032;4.314;2023-04-15T10:05:50;13.60;33.20
18160;DHT22;9205;52.032;4.314;2023-04-15T10:08:20;13.60;39.40
18160;DHT22;9205;52.032;4.314;2023-04-15T10:10:51;13.60;45.40
18160;DHT22;9205;52.032;4.314;2023-04-15T10:13:20;13.70;4.70
18160;DHT22;9205;52.032;4.314;2023-04-15T10:15:50;13.90;1.00
18160;DHT22;9205;52.032;4.314;2023-04-15T10:18:26;14.10;1.00
18160;DHT22;9205;52.032;4.314;2023-04-15T10:20:54;13.90;1.00
18160;DHT22;9205;52.032;4.314;2023-04-15T10:23:22;13.90;1.00
18160;DHT22;9205;52.032;4.314;2023-04-15T10:25:52;14.10;1.00
18160;DHT22;9205;52.032;4.314;2023-04-15T10:28:20;14.20;1.00
18160;DHT22;9205;52.032;4.314;2023-04-15T10:30:48;14.40;1.00
18160;DHT22;9205;52.032;4.314;2023-04-15T10:33:19;14.40;1.00
18160;DHT22;9205;52.032;4.314;2023-04-15T10:35:49;14.20;1.00
18160;DHT22;9205;52.032;4.314;2023-04-15T10:38:38;14.20;1.00
18160;DHT22;9205;52.032;4.314;2023-04-15T10:41:16;14.50;1.00
18160;DHT22;9205;52.032;4.314;2023-04-15T10:43:47;14.50;1.00
18160;DHT22;9205;52.032;4.314;2023-04-15T10:46:19;14.60;1.00
18160;DHT22;9205;52.032;4.314;2023-04-15T10:48:49;14.70;1.00
18160;DHT22;9205;52.032;4.314;2023-04-15T10:51:27;14.70;1.00
18160;DHT22;9205;52.032;4.314;2023-04-15T10:53:56;14.70;1.00
18160;DHT22;9205;52.032;4.314;2023-04-15T10:56:27;14.90;1.00
18160;DHT22;9205;52.032;4.314;2023-04-15T10:58:58;15.20;1.00
18160;DHT22;9205;52.032;4.314;2023-04-15T11:01:52;15.40;1.00
18160;DHT22;9205;52.032;4.314;2023-04-15T11:04:50;15.70;1.00
18160;DHT22;9205;52.032;4.314;2023-04-15T11:07:33;16.30;1.00
18160;DHT22;9205;52.032;4.314;2023-04-15T11:10:01;16.90;1.00
18160;DHT22;9205;52.032;4.314;2023-04-15T11:12:36;16.80;1.00
18160;DHT22;9205;52.032;4.314;2023-04-15T11:15:24;17.10;1.00
18160;DHT22;9205;52.032;4.314;2023-04-15T11:17:55;17.50;1.00
18160;DHT22;9205;52.032;4.314;2023-04-15T11:20:23;17.20;1.00
18160;DHT22;9205;52.032;4.314;2023-04-15T11:22:53;17.40;1.00
18160;DHT22;9205;52.032;4.314;2023-04-15T11:25:23;17.30;1.00
18160;DHT22;9205;52.032;4.314;2023-04-15T11:27:53;16.60;1.00
18160;DHT22;9205;52.032;4.314;2023-04-15T11:30:23;16.80;1.00
18160;DHT22;9205;52.032;4.314;2023-04-15T11:32:53;16.60;1.00
18160;DHT22;9205;52.032;4.314;2023-04-15T11:35:21;16.40;1.00
18160;DHT22;9205;52.032;4.314;2023-04-15T11:37:49;16.40;1.00
18160;DHT22;9205;52.032;4.314;2023-04-15T11:40:21;16.30;1.00
18160;DHT22;9205;52.032;4.314;2023-04-15T11:43:05;16.40;1.00
18160;DHT22;9205;52.032;4.314;2023-04-15T11:45:33;16.50;1.00
18160;DHT22;9205;52.032;4.314;2023-04-15T11:48:05;16.50;1.00
18160;DHT22;9205;52.032;4.314;2023-04-15T11:50:34;16.40;1.00
18160;DHT22;9205;52.032;4.314;2023-04-15T11:53:03;15.70;1.00
18160;DHT22;9205;52.032;4.314;2023-04-15T11:55:40;15.90;1.00
18160;DHT22;9205;52.032;4.314;2023-04-15T11:58:11;16.00;1.00
18160;DHT22;9205;52.032;4.314;2023-04-15T12:00:40;15.90;1.00
18160;DHT22;9205;52.032;4.314;2023-04-15T12:03:23;15.60;1.00
18160;DHT22;9205;52.032;4.314;2023-04-15T12:06:12;15.60;1.00
18160;DHT22;9205;52.032;4.314;2023-04-15T12:08:55;15.70;1.00
18160;DHT22;9205;52.032;4.314;2023-04-15T12:11:32;15.70;1.00
18160;DHT22;9205;52.032;4.314;2023-04-15T12:14:15;16.00;1.00
18160;DHT22;9205;52.032;4.314;2023-04-15T12:16:48;15.90;1.00
18160;DHT22;9205;52.032;4.314;2023-04-15T12:19:25;15.40;1.00
18160;DHT22;9205;52.032;4.314;2023-04-15T12:21:57;15.70;1.00
18160;DHT22;9205;52.032;4.314;2023-04-15T12:24:26;16.00;1.00
18160;DHT22;9205;52.032;4.314;2023-04-15T12:26:56;15.90;1.00
18160;DHT22;9205;52.032;4.314;2023-04-15T12:29:27;15.80;1.00
18160;DHT22;9205;52.032;4.314;2023-04-15T12:31:56;15.80;1.00
18160;DHT22;9205;52.032;4.314;2023-04-15T12:34:29;15.60;1.00
18160;DHT22;9205;52.032;4.314;2023-04-15T12:36:58;15.40;1.00
18160;DHT22;9205;52.032;4.314;2023-04-15T12:39:27;15.30;1.00
18160;DHT22;9205;52.032;4.314;2023-04-15T12:41:57;15.30;1.00
18160;DHT22;9205;52.032;4.314;2023-04-15T12:44:27;15.60;1.00
18160;DHT22;9205;52.032;4.314;2023-04-15T12:46:55;15.50;1.00
18160;DHT22;9205;52.032;4.314;2023-04-15T12:49:23;15.50;1.00
18160;DHT22;9205;52.032;4.314;2023-04-15T12:51:52;15.70;1.00
18160;DHT22;9205;52.032;4.314;2023-04-15T12:54:21;15.60;1.00
18160;DHT22;9205;52.032;4.314;2023-04-15T12:56:49;15.60;1.00
18160;DHT22;9205;52.032;4.314;2023-04-15T12:59:17;15.60;1.00
18160;DHT22;9205;52.032;4.314;2023-04-15T13:01:46;15.60;1.00
18160;DHT22;9205;52.032;4.314;2023-04-15T13:04:14;16.00;1.00
18160;DHT22;9205;52.032;4.314;2023-04-15T13:06:42;15.70;1.00
18160;DHT22;9205;52.032;4.314;2023-04-15T13:09:10;15.80;1.00
18160;DHT22;9205;52.032;4.314;2023-04-15T13:11:37;15.60;1.00
18160;DHT22;9205;52.032;4.314;2023-04-15T13:14:05;15.20;1.00
18160;DHT22;9205;52.032;4.314;2023-04-15T13:16:34;15.50;1.00
18160;DHT22;9205;52.032;4.314;2023-04-15T13:19:03;15.60;1.00
18160;DHT22;9205;52.032;4.314;2023-04-15T13:21:31;15.80;1.00
18160;DHT22;9205;52.032;4.314;2023-04-15T13:24:00;15.50;1.00
18160;DHT22;9205;52.032;4.314;2023-04-15T13:26:27;15.70;1.00
18160;DHT22;9205;52.032;4.314;2023-04-15T13:28:55;15.80;1.00
18160;DHT22;9205;52.032;4.314;2023-04-15T13:31:23;15.70;1.00
18160;DHT22;9205;52.032;4.314;2023-04-15T13:33:50;15.50;1.00
18160;DHT22;9205;52.032;4.314;2023-04-15T13:36:18;15.20;1.00
18160;DHT22;9205;52.032;4.314;2023-04-15T13:38:46;15.10;1.00
18160;DHT22;9205;52.032;4.314;2023-04-15T13:41:13;15.50;1.00
18160;DHT22;9205;52.032;4.314;2023-04-15T13:43:40;15.70;1.00
18160;DHT22;9205;52.032;4.314;2023-04-15T13:46:08;15.60;1.00
18160;DHT22;9205;52.032;4.314;2023-04-15T13:48:35;15.70;1.00
18160;DHT22;9205;52.032;4.314;2023-04-15T13:51:03;15.80;1.00
18160;DHT22;9205;52.032;4.314;2023-04-15T13:53:32;15.70;1.00
18160;DHT22;9205;52.032;4.314;2023-04-15T13:56:00;16.00;1.00
18160;DHT22;9205;52.032;4.314;2023-04-15T13:58:28;15.60;1.00
18160;DHT22;9205;52.032;4.314;2023-04-15T14:00:55;15.60;1.00
18160;DHT22;9205;52.032;4.314;2023-04-15T14:03:22;15.50;1.00
18160;DHT22;9205;52.032;4.314;2023-04-15T14:05:49;15.80;1.00
18160;DHT22;9205;52.032;4.314;2023-04-15T14:08:20;15.80;1.00
18160;DHT22;9205;52.032;4.314;2023-04-15T14:10:49;15.50;1.00
18160;DHT22;9205;52.032;4.314;2023-04-15T14:13:16;15.70;1.00
18160;DHT22;9205;52.032;4.314;2023-04-15T14:15:44;15.60;1.00
18160;DHT22;9205;52.032;4.314;2023-04-15T14:18:12;15.40;1.00
18160;DHT22;9205;52.032;4.314;2023-04-15T14:20:39;15.40;1.00
18160;DHT22;9205;52.032;4.314;2023-04-15T14:23:06;15.00;1.00
18160;DHT22;9205;52.032;4.314;2023-04-15T14:25:33;15.10;1.00
18160;DHT22;9205;52.032;4.314;2023-04-15T14:28:02;15.10;1.00
18160;DHT22;9205;52.032;4.314;2023-04-15T14:30:30;15.30;1.00
18160;DHT22;9205;52.032;4.314;2023-04-15T14:32:57;15.30;1.00
18160;DHT22;9205;52.032;4.314;2023-04-15T14:35:24;15.00;1.00
18160;DHT22;9205;52.032;4.314;2023-04-15T14:37:52;14.90;1.00
18160;DHT22;9205;52.032;4.314;2023-04-15T14:40:19;14.30;1.00
18160;DHT22;9205;52.032;4.314;2023-04-15T14:42:46;14.00;1.00
18160;DHT22;9205;52.032;4.314;2023-04-15T14:45:16;14.00;1.00
18160;DHT22;9205;52.032;4.314;2023-04-15T14:47:43;14.00;26.10
18160;DHT22;9205;52.032;4.314;2023-04-15T14:50:10;13.90;72.10
18160;DHT22;9205;52.032;4.314;2023-04-15T14:52:38;13.80;99.90
18160;DHT22;9205;52.032;4.314;2023-04-15T14:55:06;13.60;99.90
18160;DHT22;9205;52.032;4.314;2023-04-15T14:57:35;13.50;99.90
18160;DHT22;9205;52.032;4.314;2023-04-15T15:00:03;13.30;99.90
18160;DHT22;9205;52.032;4.314;2023-04-15T15:02:34;13.10;99.90
18160;DHT22;9205;52.032;4.314;2023-04-15T15:05:02;12.80;99.90
18160;DHT22;9205;52.032;4.314;2023-04-15T15:07:29;12.90;1.00
18160;DHT22;9205;52.032;4.314;2023-04-15T15:09:56;12.80;1.00
18160;DHT22;9205;52.032;4.314;2023-04-15T15:12:24;12.80;1.00
18160;DHT22;9205;52.032;4.314;2023-04-15T15:14:51;12.70;1.00
18160;DHT22;9205;52.032;4.314;2023-04-15T15:17:18;12.70;1.00
18160;DHT22;9205;52.032;4.314;2023-04-15T15:19:47;12.70;1.00
18160;DHT22;9205;52.032;4.314;2023-04-15T15:22:14;12.60;1.00
18160;DHT22;9205;52.032;4.314;2023-04-15T15:24:42;12.70;1.00
18160;DHT22;9205;52.032;4.314;2023-04-15T15:27:09;12.80;1.00
18160;DHT22;9205;52.032;4.314;2023-04-15T15:29:36;12.90;1.00
18160;DHT22;9205;52.032;4.314;2023-04-15T15:32:04;12.90;1.00
18160;DHT22;9205;52.032;4.314;2023-04-15T15:34:32;13.00;1.00
18160;DHT22;9205;52.032;4.314;2023-04-15T15:37:01;12.80;1.00
18160;DHT22;9205;52.032;4.314;2023-04-15T15:39:28;13.00;1.00
18160;DHT22;9205;52.032;4.314;2023-04-15T15:41:55;12.80;1.00
18160;DHT22;9205;52.032;4.314;2023-04-15T15:44:22;13.10;1.00
18160;DHT22;9205;52.032;4.314;2023-04-15T15:46:50;12.80;1.00
18160;DHT22;9205;52.032;4.314;2023-04-15T15:49:17;12.90;1.00
18160;DHT22;9205;52.032;4.314;2023-04-15T15:51:45;12.90;1.00
18160;DHT22;9205;52.032;4.314;2023-04-15T15:54:13;12.60;99.90
18160;DHT22;9205;52.032;4.314;2023-04-15T15:56:40;12.70;1.00
18160;DHT22;9205;52.032;4.314;2023-04-15T15:59:08;12.60;1.00
18160;DHT22;9205;52.032;4.314;2023-04-15T16:01:35;12.70;1.00
18160;DHT22;9205;52.032;4.314;2023-04-15T16:04:02;12.60;1.00
18160;DHT22;9205;52.032;4.314;2023-04-15T16:06:29;12.50;1.00
18160;DHT22;9205;52.032;4.314;2023-04-15T16:08:57;12.50;1.00
18160;DHT22;9205;52.032;4.314;2023-04-15T16:11:26;12.50;1.00
18160;DHT22;9205;52.032;4.314;2023-04-15T16:13:54;12.40;1.00
18160;DHT22;9205;52.032;4.314;2023-04-15T16:16:22;12.50;1.00